This is the latest recevied weather packets stored in our database for station/object DL1NUX-15. If no packets are shown the sender has not sent any weather packets the latest 10 day(s).
| Time | Temp. | Humidity | Pressure | Rain* | Wind** | Luminosity | Snow |
|---|---|---|---|---|---|---|---|
| 1777808729 | 25° C | 34% | 1015.4 hPa | 0 mm | - | 454 W/m² | - |
| 1777806330 | 24.44° C | 36% | 1015.8 hPa | 0 mm | - | 567 W/m² | - |
| 1777804533 | 23.33° C | 37% | 1016.2 hPa | 0 mm | - | 549 W/m² | - |
| 1777802733 | 21.67° C | 41% | 1016.6 hPa | 0 mm | - | 648 W/m² | - |
| 1777796137 | 20.56° C | 41% | 1017 hPa | 0 mm | - | 601 W/m² | - |
| 1777793124 | 18.33° C | 47% | 1017 hPa | 0 mm | - | 379 W/m² | - |
| 1777792524 | 18.33° C | 49% | 1017 hPa | 0 mm | - | 276 W/m² | - |
| 1777788926 | 16.11° C | 57% | 1017.2 hPa | 0 mm | - | 190 W/m² | - |
| 1777786528 | 12.22° C | 68% | 1016.9 hPa | 0 mm | - | 132 W/m² | - |
| 1777785329 | 11.67° C | 68% | 1016.8 hPa | 0 mm | - | 78 W/m² | - |
| 1777784730 | 11.11° C | 71% | 1016.9 hPa | 0 mm | - | 60 W/m² | - |
| 1777782931 | 9.44° C | 74% | 1016.9 hPa | 0 mm | - | 28 W/m² | - |
| 1777781731 | 9.44° C | 76% | 1016.8 hPa | 0 mm | - | 11 W/m² | - |
| 1777779933 | 8.89° C | 81% | 1016.9 hPa | 0 mm | - | 0 W/m² | - |
| 1777776335 | 8.89° C | 82% | 1017 hPa | 0 mm | - | 0 W/m² | - |
| 1777773937 | 9.44° C | 80% | 1017.1 hPa | 0 mm | - | 0 W/m² | - |
| 1777772738 | 9.44° C | 78% | 1017.2 hPa | 0 mm | - | 0 W/m² | - |
| 1777772138 | 10° C | 77% | 1017.3 hPa | 0 mm | - | 0 W/m² | - |
| 1777771539 | 10° C | 76% | 1017.5 hPa | 0 mm | - | 0 W/m² | - |
| 1777770939 | 10.56° C | 75% | 1017.3 hPa | 0 mm | - | 0 W/m² | - |
| 1777770340 | 10.56° C | 75% | 1017.4 hPa | 0 mm | - | 0 W/m² | - |
| 1777767941 | 11.11° C | 75% | 1017.6 hPa | 0 mm | - | 0 W/m² | - |
| 1777764943 | 11.67° C | 69% | 1017.7 hPa | 0 mm | - | 0 W/m² | - |
| 1777763744 | 12.22° C | 70% | 1017.8 hPa | 0 mm | - | 0 W/m² | - |
| 1777763145 | 12.22° C | 67% | 1017.8 hPa | 0 mm | - | 0 W/m² | - |
* Rain latest hour (hover to see other rain measurements)
** Current wind speed in m/s (hover to see current wind gust speed)